sensor_id;sensor_type;location;lat;lon;timestamp;pressure;altitude;pressure_sealevel;temperature;humidity
47374;BME280;33123;50.118;10.272;2023-03-21T00:00:57;97887.66;;;10.13;62.02
47374;BME280;33123;50.118;10.272;2023-03-21T00:03:24;97884.78;;;10.14;61.95
47374;BME280;33123;50.118;10.272;2023-03-21T00:05:52;97882.94;;;10.15;62.08
47374;BME280;33123;50.118;10.272;2023-03-21T00:08:19;97880.81;;;10.12;63.00
47374;BME280;33123;50.118;10.272;2023-03-21T00:10:46;97880.81;;;10.12;62.66
47374;BME280;33123;50.118;10.272;2023-03-21T00:13:14;97875.53;;;10.12;62.73
47374;BME280;33123;50.118;10.272;2023-03-21T00:15:42;97877.59;;;10.10;62.56
47374;BME280;33123;50.118;10.272;2023-03-21T00:18:20;97873.94;;;10.11;62.63
47374;BME280;33123;50.118;10.272;2023-03-21T00:20:55;97874.75;;;10.11;62.68
47374;BME280;33123;50.118;10.272;2023-03-21T00:23:23;97868.69;;;10.11;62.44
47374;BME280;33123;50.118;10.272;2023-03-21T00:25:50;97865.81;;;10.12;62.58
47374;BME280;33123;50.118;10.272;2023-03-21T00:28:16;97866.34;;;10.14;62.46
47374;BME280;33123;50.118;10.272;2023-03-21T00:30:44;97861.66;;;10.16;62.81
47374;BME280;33123;50.118;10.272;2023-03-21T00:33:11;97849.28;;;10.17;63.37
47374;BME280;33123;50.118;10.272;2023-03-21T00:35:39;97855.09;;;10.19;62.64
47374;BME280;33123;50.118;10.272;2023-03-21T00:38:07;97855.09;;;10.19;62.42
47374;BME280;33123;50.118;10.272;2023-03-21T00:40:34;97853.50;;;10.18;62.46
47374;BME280;33123;50.118;10.272;2023-03-21T00:43:13;97849.03;;;10.18;62.64
47374;BME280;33123;50.118;10.272;2023-03-21T00:45:41;97844.81;;;10.17;62.81
47374;BME280;33123;50.118;10.272;2023-03-21T00:48:09;97838.75;;;10.17;62.90
47374;BME280;33123;50.118;10.272;2023-03-21T00:50:36;97819.81;;;10.03;63.48
47374;BME280;33123;50.118;10.272;2023-03-21T00:53:04;97836.34;;;10.15;63.65
47374;BME280;33123;50.118;10.272;2023-03-21T00:55:31;97838.16;;;10.15;63.72
47374;BME280;33123;50.118;10.272;2023-03-21T00:57:58;97832.13;;;10.14;63.90
47374;BME280;33123;50.118;10.272;2023-03-21T01:00:25;97829.72;;;10.13;64.02
47374;BME280;33123;50.118;10.272;2023-03-21T01:02:51;97827.56;;;10.10;64.20
47374;BME280;33123;50.118;10.272;2023-03-21T01:05:24;97825.50;;;10.12;64.05
47374;BME280;33123;50.118;10.272;2023-03-21T01:08:04;97828.13;;;10.12;64.06
47374;BME280;33123;50.118;10.272;2023-03-21T01:10:32;97830.78;;;10.12;64.26
47374;BME280;33123;50.118;10.272;2023-03-21T01:12:58;97826.59;;;10.16;63.61
47374;BME280;33123;50.118;10.272;2023-03-21T01:15:25;97827.41;;;10.16;63.91
47374;BME280;33123;50.118;10.272;2023-03-21T01:17:52;97823.97;;;10.16;64.36
47374;BME280;33123;50.118;10.272;2023-03-21T01:20:18;97817.91;;;10.15;64.17
47374;BME280;33123;50.118;10.272;2023-03-21T01:22:46;97823.16;;;10.15;63.36
47374;BME280;33123;50.118;10.272;2023-03-21T01:25:13;97818.94;;;10.14;63.13
47374;BME280;33123;50.118;10.272;2023-03-21T01:27:39;97823.41;;;10.14;61.92
47374;BME280;33123;50.118;10.272;2023-03-21T01:30:07;97812.09;;;10.13;61.75
47374;BME280;33123;50.118;10.272;2023-03-21T01:32:34;97811.84;;;10.15;61.76
47374;BME280;33123;50.118;10.272;2023-03-21T01:35:01;97816.63;;;10.18;62.13
47374;BME280;33123;50.118;10.272;2023-03-21T01:37:28;97811.91;;;10.20;62.31
47374;BME280;33123;50.118;10.272;2023-03-21T01:39:56;97808.50;;;10.19;62.22
47374;BME280;33123;50.118;10.272;2023-03-21T01:42:22;97806.41;;;10.21;62.11
47374;BME280;33123;50.118;10.272;2023-03-21T01:44:55;97811.44;;;10.23;62.16
47374;BME280;33123;50.118;10.272;2023-03-21T01:47:23;97810.88;;;10.21;62.31
47374;BME280;33123;50.118;10.272;2023-03-21T01:49:51;97803.47;;;10.18;62.96
47374;BME280;33123;50.118;10.272;2023-03-21T01:52:23;97807.16;;;10.17;63.65
47374;BME280;33123;50.118;10.272;2023-03-21T01:54:55;97807.38;;;10.15;64.18
47374;BME280;33123;50.118;10.272;2023-03-21T01:57:25;97791.09;;;10.01;63.43
47374;BME280;33123;50.118;10.272;2023-03-21T01:59:57;97811.75;;;10.10;63.61
47374;BME280;33123;50.118;10.272;2023-03-21T02:02:28;97811.22;;;10.08;64.00
47374;BME280;33123;50.118;10.272;2023-03-21T02:04:56;97809.63;;;10.07;64.29
47374;BME280;33123;50.118;10.272;2023-03-21T02:07:27;97810.41;;;10.07;64.33
47374;BME280;33123;50.118;10.272;2023-03-21T02:09:57;97807.78;;;10.07;64.63
47374;BME280;33123;50.118;10.272;2023-03-21T02:12:24;97805.69;;;10.09;64.41
47374;BME280;33123;50.118;10.272;2023-03-21T02:14:52;97794.88;;;10.05;64.28
47374;BME280;33123;50.118;10.272;2023-03-21T02:17:27;97800.69;;;10.08;63.90
47374;BME280;33123;50.118;10.272;2023-03-21T02:20:30;97796.19;;;10.08;63.31
47374;BME280;33123;50.118;10.272;2023-03-21T02:23:45;97795.41;;;10.08;63.42
47374;BME280;33123;50.118;10.272;2023-03-21T02:26:46;97793.81;;;10.07;63.68
47374;BME280;33123;50.118;10.272;2023-03-21T02:29:28;97789.81;;;10.04;63.99
47374;BME280;33123;50.118;10.272;2023-03-21T02:32:04;97794.28;;;10.03;63.78
47374;BME280;33123;50.118;10.272;2023-03-21T02:34:47;97784.53;;;10.04;64.23
47374;BME280;33123;50.118;10.272;2023-03-21T02:37:21;97785.59;;;10.03;63.88
47374;BME280;33123;50.118;10.272;2023-03-21T02:39:54;97776.91;;;10.02;62.56
47374;BME280;33123;50.118;10.272;2023-03-21T02:42:28;97774.50;;;10.01;62.50
47374;BME280;33123;50.118;10.272;2023-03-21T02:45:04;97778.97;;;10.00;62.99
47374;BME280;33123;50.118;10.272;2023-03-21T02:47:33;97778.97;;;10.00;63.45
47374;BME280;33123;50.118;10.272;2023-03-21T02:50:06;97774.25;;;10.02;63.38
47374;BME280;33123;50.118;10.272;2023-03-21T02:52:37;97769.00;;;10.02;63.67
47374;BME280;33123;50.118;10.272;2023-03-21T02:55:08;97775.31;;;10.01;63.73
47374;BME280;33123;50.118;10.272;2023-03-21T03:01:00;97771.31;;;9.99;64.09
47374;BME280;33123;50.118;10.272;2023-03-21T03:03:27;97778.91;;;9.95;64.38
47374;BME280;33123;50.118;10.272;2023-03-21T03:05:56;97771.25;;;9.94;63.99
47374;BME280;33123;50.118;10.272;2023-03-21T03:08:33;97764.63;;;9.91;63.66
47374;BME280;33123;50.118;10.272;2023-03-21T03:11:13;97775.16;;;9.91;63.81
47374;BME280;33123;50.118;10.272;2023-03-21T03:13:53;97772.75;;;9.90;63.76
47374;BME280;33123;50.118;10.272;2023-03-21T03:16:26;97772.19;;;9.88;64.26
47374;BME280;33123;50.118;10.272;2023-03-21T03:19:03;97766.13;;;9.87;63.92
47374;BME280;33123;50.118;10.272;2023-03-21T03:21:39;97758.94;;;9.83;62.76
47374;BME280;33123;50.118;10.272;2023-03-21T03:24:11;97767.88;;;9.82;62.95
47374;BME280;33123;50.118;10.272;2023-03-21T03:26:44;97759.59;;;9.73;62.24
47374;BME280;33123;50.118;10.272;2023-03-21T03:29:14;97762.94;;;9.68;62.77
47374;BME280;33123;50.118;10.272;2023-03-21T03:31:45;97764.78;;;9.68;62.87
47374;BME280;33123;50.118;10.272;2023-03-21T03:34:17;97766.13;;;9.70;63.43
47374;BME280;33123;50.118;10.272;2023-03-21T03:36:47;97760.06;;;9.70;64.29
47374;BME280;33123;50.118;10.272;2023-03-21T03:39:25;97753.75;;;9.71;64.41
47374;BME280;33123;50.118;10.272;2023-03-21T03:41:59;97755.38;;;9.72;64.51
47374;BME280;33123;50.118;10.272;2023-03-21T03:44:28;97753.75;;;9.71;64.73
47374;BME280;33123;50.118;10.272;2023-03-21T03:46:58;97759.81;;;9.71;64.77
47374;BME280;33123;50.118;10.272;2023-03-21T03:49:29;97741.78;;;9.63;65.03
47374;BME280;33123;50.118;10.272;2023-03-21T03:52:00;97757.19;;;9.71;65.20
47374;BME280;33123;50.118;10.272;2023-03-21T03:54:35;97752.75;;;9.72;65.16
47374;BME280;33123;50.118;10.272;2023-03-21T03:57:02;97755.38;;;9.72;65.02
47374;BME280;33123;50.118;10.272;2023-03-21T03:59:32;97747.69;;;9.70;65.32
47374;BME280;33123;50.118;10.272;2023-03-21T04:01:59;97748.47;;;9.71;65.22
47374;BME280;33123;50.118;10.272;2023-03-21T04:04:26;97746.34;;;9.68;65.36
47374;BME280;33123;50.118;10.272;2023-03-21T04:06:53;97746.91;;;9.70;65.22
47374;BME280;33123;50.118;10.272;2023-03-21T04:09:20;97744.00;;;9.71;65.08
47374;BME280;33123;50.118;10.272;2023-03-21T04:11:49;97751.69;;;9.73;64.99
47374;BME280;33123;50.118;10.272;2023-03-21T04:14:16;97753.28;;;9.74;65.07
47374;BME280;33123;50.118;10.272;2023-03-21T04:16:43;97754.88;;;9.75;65.66
47374;BME280;33123;50.118;10.272;2023-03-21T04:19:09;97755.66;;;9.75;65.52
47374;BME280;33123;50.118;10.272;2023-03-21T04:21:36;97738.13;;;9.64;65.88
47374;BME280;33123;50.118;10.272;2023-03-21T04:24:03;97752.50;;;9.73;66.25
47374;BME280;33123;50.118;10.272;2023-03-21T04:26:31;97760.13;;;9.75;66.28
47374;BME280;33123;50.118;10.272;2023-03-21T04:29:01;97750.66;;;9.74;66.10
47374;BME280;33123;50.118;10.272;2023-03-21T04:31:29;97755.91;;;9.74;65.83
47374;BME280;33123;50.118;10.272;2023-03-21T04:33:59;97751.69;;;9.73;65.76
47374;BME280;33123;50.118;10.272;2023-03-21T04:36:26;97686.28;;;9.31;65.17
47374;BME280;33123;50.118;10.272;2023-03-21T04:38:55;97756.16;;;9.72;65.36
47374;BME280;33123;50.118;10.272;2023-03-21T04:41:25;97752.94;;;9.70;65.29
47374;BME280;33123;50.118;10.272;2023-03-21T04:43:51;97755.03;;;9.68;64.70
47374;BME280;33123;50.118;10.272;2023-03-21T04:46:19;97752.88;;;9.65;65.09
47374;BME280;33123;50.118;10.272;2023-03-21T04:48:46;97754.69;;;9.65;65.16
47374;BME280;33123;50.118;10.272;2023-03-21T04:51:13;97757.91;;;9.67;65.51
47374;BME280;33123;50.118;10.272;2023-03-21T04:53:39;97754.25;;;9.68;66.20
47374;BME280;33123;50.118;10.272;2023-03-21T04:56:09;97761.09;;;9.69;65.23
47374;BME280;33123;50.118;10.272;2023-03-21T04:58:36;97756.63;;;9.69;64.63
47374;BME280;33123;50.118;10.272;2023-03-21T05:01:05;97748.72;;;9.69;64.74
47374;BME280;33123;50.118;10.272;2023-03-21T05:03:33;97744.59;;;9.73;65.29
47374;BME280;33123;50.118;10.272;2023-03-21T05:06:05;97741.72;;;9.75;65.20
47374;BME280;33123;50.118;10.272;2023-03-21T05:08:33;97745.94;;;9.76;65.20
47374;BME280;33123;50.118;10.272;2023-03-21T05:11:00;97744.44;;;9.80;65.32
47374;BME280;33123;50.118;10.272;2023-03-21T05:13:26;97749.44;;;9.82;64.59
47374;BME280;33123;50.118;10.272;2023-03-21T05:15:53;97751.03;;;9.83;64.41
47374;BME280;33123;50.118;10.272;2023-03-21T05:18:20;97756.88;;;9.85;64.33
47374;BME280;33123;50.118;10.272;2023-03-21T05:20:51;97754.72;;;9.82;65.11
47374;BME280;33123;50.118;10.272;2023-03-21T05:23:19;97755.50;;;9.82;64.72
47374;BME280;33123;50.118;10.272;2023-03-21T05:25:46;97753.91;;;9.81;64.37
47374;BME280;33123;50.118;10.272;2023-03-21T05:28:13;97764.28;;;9.88;64.86
47374;BME280;33123;50.118;10.272;2023-03-21T05:30:42;97759.81;;;9.88;63.67
47374;BME280;33123;50.118;10.272;2023-03-21T05:33:09;97759.81;;;9.88;63.46
47374;BME280;33123;50.118;10.272;2023-03-21T05:35:36;97752.97;;;9.87;63.64
47374;BME280;33123;50.118;10.272;2023-03-21T05:38:04;97752.97;;;9.87;63.75
47374;BME280;33123;50.118;10.272;2023-03-21T05:40:31;97755.03;;;9.85;63.64
47374;BME280;33123;50.118;10.272;2023-03-21T05:42:57;97761.91;;;9.86;63.80
47374;BME280;33123;50.118;10.272;2023-03-21T05:45:24;97763.19;;;9.84;63.58
47374;BME280;33123;50.118;10.272;2023-03-21T05:47:51;97745.31;;;9.69;64.24
47374;BME280;33123;50.118;10.272;2023-03-21T05:50:18;97741.63;;;9.70;63.79
47374;BME280;33123;50.118;10.272;2023-03-21T05:52:45;97770.59;;;9.87;64.08
47374;BME280;33123;50.118;10.272;2023-03-21T05:55:13;97763.50;;;9.87;64.03
47374;BME280;33123;50.118;10.272;2023-03-21T05:57:39;97760.94;;;9.92;64.22
47374;BME280;33123;50.118;10.272;2023-03-21T06:00:07;97769.97;;;9.96;64.30
47374;BME280;33123;50.118;10.272;2023-03-21T06:02:34;97763.41;;;9.99;64.52
47374;BME280;33123;50.118;10.272;2023-03-21T06:05:01;97773.72;;;10.00;63.59
47374;BME280;33123;50.118;10.272;2023-03-21T06:07:27;97767.06;;;9.98;63.10
47374;BME280;33123;50.118;10.272;2023-03-21T06:09:54;97756.25;;;9.94;62.78
47374;BME280;33123;50.118;10.272;2023-03-21T06:12:22;97766.44;;;10.08;62.66
47374;BME280;33123;50.118;10.272;2023-03-21T06:14:49;97772.84;;;10.12;61.84
47374;BME280;33123;50.118;10.272;2023-03-21T06:17:15;97772.13;;;10.16;62.14
47374;BME280;33123;50.118;10.272;2023-03-21T06:19:42;97768.72;;;10.21;62.02
47374;BME280;33123;50.118;10.272;2023-03-21T06:22:08;97767.78;;;10.27;61.29
47374;BME280;33123;50.118;10.272;2023-03-21T06:24:35;97772.13;;;10.33;61.09
47374;BME280;33123;50.118;10.272;2023-03-21T06:27:02;97772.75;;;10.40;61.31
47374;BME280;33123;50.118;10.272;2023-03-21T06:29:30;97765.72;;;10.46;62.18
47374;BME280;33123;50.118;10.272;2023-03-21T06:31:57;97768.16;;;10.52;62.41
47374;BME280;33123;50.118;10.272;2023-03-21T06:34:23;97773.03;;;10.61;61.14
47374;BME280;33123;50.118;10.272;2023-03-21T06:36:51;97774.09;;;10.65;60.53
47374;BME280;33123;50.118;10.272;2023-03-21T06:39:19;97776.53;;;10.66;60.78
47374;BME280;33123;50.118;10.272;2023-03-21T06:41:45;97770.28;;;10.72;61.01
47374;BME280;33123;50.118;10.272;2023-03-21T06:44:12;97775.84;;;10.76;60.01
47374;BME280;33123;50.118;10.272;2023-03-21T06:46:40;97773.78;;;10.78;60.02
47374;BME280;33123;50.118;10.272;2023-03-21T06:49:07;97766.88;;;10.77;59.40
47374;BME280;33123;50.118;10.272;2023-03-21T06:51:33;97773.25;;;10.81;59.54
47374;BME280;33123;50.118;10.272;2023-03-21T06:54:00;97770.09;;;10.79;59.33
47374;BME280;33123;50.118;10.272;2023-03-21T06:56:27;97773.78;;;10.78;58.91
47374;BME280;33123;50.118;10.272;2023-03-21T06:58:53;97772.78;;;10.84;59.24
47374;BME280;33123;50.118;10.272;2023-03-21T07:01:20;97777.56;;;10.87;59.39
47374;BME280;33123;50.118;10.272;2023-03-21T07:03:48;97773.84;;;10.83;59.36
47374;BME280;33123;50.118;10.272;2023-03-21T07:06:15;97768.59;;;10.88;59.11
47374;BME280;33123;50.118;10.272;2023-03-21T07:08:41;97769.97;;;10.91;58.74
47374;BME280;33123;50.118;10.272;2023-03-21T07:11:08;97764.81;;;10.79;58.57
47374;BME280;33123;50.118;10.272;2023-03-21T07:13:35;97777.41;;;10.77;57.54
47374;BME280;33123;50.118;10.272;2023-03-21T07:16:05;97695.28;;;10.41;57.08
47374;BME280;33123;50.118;10.272;2023-03-21T07:18:32;97770.22;;;10.89;57.46
47374;BME280;33123;50.118;10.272;2023-03-21T07:21:00;97768.13;;;10.91;58.55
47374;BME280;33123;50.118;10.272;2023-03-21T07:23:27;97780.91;;;11.04;57.53
47374;BME280;33123;50.118;10.272;2023-03-21T07:25:54;97768.13;;;10.91;58.38
47374;BME280;33123;50.118;10.272;2023-03-21T07:28:21;97773.00;;;11.04;58.17
47374;BME280;33123;50.118;10.272;2023-03-21T07:30:52;97778.41;;;11.15;58.21
47374;BME280;33123;50.118;10.272;2023-03-21T07:33:19;97779.31;;;11.25;57.49
47374;BME280;33123;50.118;10.272;2023-03-21T07:35:47;97774.81;;;11.26;56.48
47374;BME280;33123;50.118;10.272;2023-03-21T07:38:15;97773.66;;;11.39;56.96
47374;BME280;33123;50.118;10.272;2023-03-21T07:40:42;97773.44;;;11.45;56.71
47374;BME280;33123;50.118;10.272;2023-03-21T07:43:08;97771.91;;;11.49;56.03
47374;BME280;33123;50.118;10.272;2023-03-21T07:45:35;97766.75;;;11.37;56.10
47374;BME280;33123;50.118;10.272;2023-03-21T07:48:02;97770.81;;;11.45;56.06
47374;BME280;33123;50.118;10.272;2023-03-21T07:50:29;97773.56;;;11.55;56.28
47374;BME280;33123;50.118;10.272;2023-03-21T07:52:55;97767.75;;;11.58;56.60
47374;BME280;33123;50.118;10.272;2023-03-21T07:55:23;97760.03;;;11.52;56.14
47374;BME280;33123;50.118;10.272;2023-03-21T07:57:51;97772.03;;;11.64;56.35
47374;BME280;33123;50.118;10.272;2023-03-21T08:00:18;97769.41;;;11.64;56.03
47374;BME280;33123;50.118;10.272;2023-03-21T08:02:48;97770.19;;;11.92;55.62
47374;BME280;33123;50.118;10.272;2023-03-21T08:05:19;97749.63;;;11.94;54.74
47374;BME280;33123;50.118;10.272;2023-03-21T08:07:46;97764.75;;;12.09;53.83
47374;BME280;33123;50.118;10.272;2023-03-21T08:10:12;97771.66;;;12.52;53.63
47374;BME280;33123;50.118;10.272;2023-03-21T08:12:41;97767.50;;;12.66;52.35
47374;BME280;33123;50.118;10.272;2023-03-21T08:15:08;97771.81;;;12.93;51.58
47374;BME280;33123;50.118;10.272;2023-03-21T08:17:35;97771.19;;;13.23;51.73
47374;BME280;33123;50.118;10.272;2023-03-21T08:20:06;97773.09;;;13.58;51.05
47374;BME280;33123;50.118;10.272;2023-03-21T08:22:33;97770.47;;;13.94;49.82
47374;BME280;33123;50.118;10.272;2023-03-21T08:25:00;97703.97;;;13.85;48.55
47374;BME280;33123;50.118;10.272;2023-03-21T08:27:28;97778.28;;;14.75;47.49
47374;BME280;33123;50.118;10.272;2023-03-21T08:29:56;97768.28;;;14.62;46.42
47374;BME280;33123;50.118;10.272;2023-03-21T08:32:24;97775.97;;;15.23;45.53
47374;BME280;33123;50.118;10.272;2023-03-21T08:34:53;97774.81;;;15.45;45.65
47374;BME280;33123;50.118;10.272;2023-03-21T08:37:22;97779.06;;;15.85;44.69
47374;BME280;33123;50.118;10.272;2023-03-21T08:39:49;97775.22;;;16.30;43.46
47374;BME280;33123;50.118;10.272;2023-03-21T08:42:16;97771.78;;;16.54;42.52
47374;BME280;33123;50.118;10.272;2023-03-21T08:44:43;97776.75;;;16.89;41.29
47374;BME280;33123;50.118;10.272;2023-03-21T08:47:11;97770.47;;;16.80;41.20
47374;BME280;33123;50.118;10.272;2023-03-21T08:49:38;97771.56;;;16.98;41.83
47374;BME280;33123;50.118;10.272;2023-03-21T08:52:06;97766.31;;;16.93;41.31
47374;BME280;33123;50.118;10.272;2023-03-21T08:54:33;97777.25;;;16.92;40.73
47374;BME280;33123;50.118;10.272;2023-03-21T08:57:00;97765.91;;;17.05;40.72
47374;BME280;33123;50.118;10.272;2023-03-21T08:59:26;97773.13;;;17.23;40.72
47374;BME280;33123;50.118;10.272;2023-03-21T09:01:53;97769.03;;;17.50;40.01
47374;BME280;33123;50.118;10.272;2023-03-21T09:04:21;97766.16;;;17.84;39.92
47374;BME280;33123;50.118;10.272;2023-03-21T09:06:50;97765.44;;;18.11;39.38
47374;BME280;33123;50.118;10.272;2023-03-21T09:09:17;97764.91;;;18.41;38.35
47374;BME280;33123;50.118;10.272;2023-03-21T09:11:43;97760.75;;;18.63;37.73
47374;BME280;33123;50.118;10.272;2023-03-21T09:14:10;97764.47;;;18.94;37.69
47374;BME280;33123;50.118;10.272;2023-03-21T09:16:37;97757.91;;;19.50;37.36
47374;BME280;33123;50.118;10.272;2023-03-21T09:19:04;97760.97;;;19.80;36.19
47374;BME280;33123;50.118;10.272;2023-03-21T09:21:34;97746.78;;;19.93;35.70
47374;BME280;33123;50.118;10.272;2023-03-21T09:24:03;97753.25;;;20.01;35.22
47374;BME280;33123;50.118;10.272;2023-03-21T09:26:29;97754.31;;;20.53;35.27
47374;BME280;33123;50.118;10.272;2023-03-21T09:28:56;97752.06;;;20.78;35.46
47374;BME280;33123;50.118;10.272;2023-03-21T09:31:25;97752.34;;;20.68;34.94
47374;BME280;33123;50.118;10.272;2023-03-21T09:33:53;97753.00;;;20.82;34.27
47374;BME280;33123;50.118;10.272;2023-03-21T09:36:22;97744.25;;;21.07;34.61
47374;BME280;33123;50.118;10.272;2023-03-21T09:38:52;97749.44;;;21.04;33.70
47374;BME280;33123;50.118;10.272;2023-03-21T09:42:01;97742.00;;;20.92;34.13
47374;BME280;33123;50.118;10.272;2023-03-21T09:44:39;97742.78;;;20.84;34.47
47374;BME280;33123;50.118;10.272;2023-03-21T09:47:13;97742.19;;;20.96;34.23
47374;BME280;33123;50.118;10.272;2023-03-21T09:49:47;97730.19;;;20.85;34.11
47374;BME280;33123;50.118;10.272;2023-03-21T09:54:55;97725.16;;;21.09;32.26
47374;BME280;33123;50.118;10.272;2023-03-21T09:57:28;97729.97;;;21.38;32.93
47374;BME280;33123;50.118;10.272;2023-03-21T09:59:58;97722.22;;;21.37;31.97
47374;BME280;33123;50.118;10.272;2023-03-21T10:02:37;97733.44;;;21.39;32.49
47374;BME280;33123;50.118;10.272;2023-03-21T10:05:11;97733.44;;;21.39;32.88
47374;BME280;33123;50.118;10.272;2023-03-21T10:07:41;97729.41;;;21.01;32.41
47374;BME280;33123;50.118;10.272;2023-03-21T10:10:18;97729.91;;;21.12;32.67
47374;BME280;33123;50.118;10.272;2023-03-21T10:12:47;97717.75;;;21.15;32.64
47374;BME280;33123;50.118;10.272;2023-03-21T10:15:19;97725.81;;;21.15;32.69
47374;BME280;33123;50.118;10.272;2023-03-21T10:17:51;97714.94;;;21.20;32.37
47374;BME280;33123;50.118;10.272;2023-03-21T10:20:21;97722.19;;;21.28;32.74
47374;BME280;33123;50.118;10.272;2023-03-21T10:22:51;97720.94;;;21.17;32.39
47374;BME280;33123;50.118;10.272;2023-03-21T10:25:25;97713.88;;;21.29;32.49
47374;BME280;33123;50.118;10.272;2023-03-21T10:27:54;97705.03;;;21.38;32.30
47374;BME280;33123;50.118;10.272;2023-03-21T10:30:28;97696.50;;;21.53;31.62
47374;BME280;33123;50.118;10.272;2023-03-21T10:33:01;97692.56;;;21.68;31.54
47374;BME280;33123;50.118;10.272;2023-03-21T10:35:31;97695.72;;;22.25;31.28
47374;BME280;33123;50.118;10.272;2023-03-21T10:38:02;97697.81;;;22.58;30.70
47374;BME280;33123;50.118;10.272;2023-03-21T10:40:31;97692.50;;;22.11;31.13
47374;BME280;33123;50.118;10.272;2023-03-21T10:43:17;97695.88;;;22.29;30.92
47374;BME280;33123;50.118;10.272;2023-03-21T10:45:47;97683.03;;;21.96;31.56
47374;BME280;33123;50.118;10.272;2023-03-21T10:48:14;97688.09;;;21.89;31.33
47374;BME280;33123;50.118;10.272;2023-03-21T10:50:42;97687.72;;;22.17;31.16
47374;BME280;33123;50.118;10.272;2023-03-21T10:53:16;97682.00;;;22.27;31.98
47374;BME280;33123;50.118;10.272;2023-03-21T10:55:48;97687.16;;;22.40;33.24
47374;BME280;33123;50.118;10.272;2023-03-21T10:58:19;97688.13;;;22.95;33.96
47374;BME280;33123;50.118;10.272;2023-03-21T11:00:54;97684.53;;;23.12;31.49
47374;BME280;33123;50.118;10.272;2023-03-21T11:03:26;97682.44;;;23.38;30.84
47374;BME280;33123;50.118;10.272;2023-03-21T11:05:59;97676.66;;;23.07;30.50
47374;BME280;33123;50.118;10.272;2023-03-21T11:08:28;97669.88;;;22.50;31.60
47374;BME280;33123;50.118;10.272;2023-03-21T11:11:02;97670.00;;;22.54;31.46
47374;BME280;33123;50.118;10.272;2023-03-21T11:13:33;97662.63;;;22.12;32.28
47374;BME280;33123;50.118;10.272;2023-03-21T11:16:07;97666.28;;;21.99;32.92
47374;BME280;33123;50.118;10.272;2023-03-21T11:18:40;97667.91;;;21.83;32.88
47374;BME280;33123;50.118;10.272;2023-03-21T11:21:09;97666.34;;;21.65;33.10
47374;BME280;33123;50.118;10.272;2023-03-21T11:23:40;97668.66;;;22.01;33.39
47374;BME280;33123;50.118;10.272;2023-03-21T11:26:14;97668.66;;;22.01;33.84
47374;BME280;33123;50.118;10.272;2023-03-21T11:28:41;97666.72;;;22.19;33.44
47374;BME280;33123;50.118;10.272;2023-03-21T11:31:09;97666.81;;;22.31;33.88
47374;BME280;33123;50.118;10.272;2023-03-21T11:33:37;97662.47;;;22.47;33.62
47374;BME280;33123;50.118;10.272;2023-03-21T11:36:07;97661.22;;;22.74;32.74
47374;BME280;33123;50.118;10.272;2023-03-21T11:38:51;97668.84;;;22.93;33.63
47374;BME280;33123;50.118;10.272;2023-03-21T11:41:23;97660.47;;;22.95;32.43
47374;BME280;33123;50.118;10.272;2023-03-21T11:43:51;97663.16;;;22.65;32.53
47374;BME280;33123;50.118;10.272;2023-03-21T11:46:23;97664.97;;;22.52;33.76
47374;BME280;33123;50.118;10.272;2023-03-21T11:48:49;97660.31;;;22.32;33.25
47374;BME280;33123;50.118;10.272;2023-03-21T11:51:21;97654.44;;;22.00;34.34
47374;BME280;33123;50.118;10.272;2023-03-21T11:53:56;97648.25;;;22.08;35.87
47374;BME280;33123;50.118;10.272;2023-03-21T11:56:32;97637.72;;;21.95;34.26
47374;BME280;33123;50.118;10.272;2023-03-21T11:59:16;97640.81;;;21.58;34.88
47374;BME280;33123;50.118;10.272;2023-03-21T12:02:07;97629.66;;;20.96;35.44
47374;BME280;33123;50.118;10.272;2023-03-21T12:04:39;97631.97;;;20.63;35.96
47374;BME280;33123;50.118;10.272;2023-03-21T12:07:20;97640.63;;;20.51;36.65
47374;BME280;33123;50.118;10.272;2023-03-21T12:09:55;97625.88;;;20.31;37.32
47374;BME280;33123;50.118;10.272;2023-03-21T12:12:32;97625.34;;;20.51;38.68
47374;BME280;33123;50.118;10.272;2023-03-21T12:15:07;97625.34;;;20.51;37.09
47374;BME280;33123;50.118;10.272;2023-03-21T12:17:42;97620.38;;;20.36;36.51
47374;BME280;33123;50.118;10.272;2023-03-21T12:20:36;97619.81;;;19.99;37.19
47374;BME280;33123;50.118;10.272;2023-03-21T12:23:24;97610.16;;;19.90;38.52
47374;BME280;33123;50.118;10.272;2023-03-21T12:26:10;97612.56;;;19.69;38.65
47374;BME280;33123;50.118;10.272;2023-03-21T12:28:49;97600.91;;;19.42;38.72
47374;BME280;33123;50.118;10.272;2023-03-21T12:31:25;97607.34;;;19.41;40.00
47374;BME280;33123;50.118;10.272;2023-03-21T12:34:05;97601.97;;;19.10;39.51
47374;BME280;33123;50.118;10.272;2023-03-21T12:37:00;97591.09;;;18.84;39.90
47374;BME280;33123;50.118;10.272;2023-03-21T12:39:29;97592.91;;;18.97;40.93
47374;BME280;33123;50.118;10.272;2023-03-21T12:42:08;97590.34;;;18.92;40.55
47374;BME280;33123;50.118;10.272;2023-03-21T12:44:40;97589.41;;;19.11;40.59
47374;BME280;33123;50.118;10.272;2023-03-21T12:47:12;97592.31;;;19.23;40.66
47374;BME280;33123;50.118;10.272;2023-03-21T12:49:45;97583.75;;;19.12;39.91
47374;BME280;33123;50.118;10.272;2023-03-21T12:52:15;97586.47;;;19.21;40.32
47374;BME280;33123;50.118;10.272;2023-03-21T12:54:47;97576.63;;;19.30;40.52
47374;BME280;33123;50.118;10.272;2023-03-21T12:57:18;97585.88;;;19.02;40.15
47374;BME280;33123;50.118;10.272;2023-03-21T12:59:52;97579.25;;;19.21;39.52
47374;BME280;33123;50.118;10.272;2023-03-21T13:02:24;97578.34;;;19.04;39.78
47374;BME280;33123;50.118;10.272;2023-03-21T13:04:58;97580.28;;;19.12;39.00
47374;BME280;33123;50.118;10.272;2023-03-21T13:07:33;97565.09;;;18.98;39.69
47374;BME280;33123;50.118;10.272;2023-03-21T13:10:11;97569.50;;;18.94;40.16
47374;BME280;33123;50.118;10.272;2023-03-21T13:12:44;97568.88;;;18.97;40.07
47374;BME280;33123;50.118;10.272;2023-03-21T13:15:26;97559.63;;;19.04;40.31